Hlavní strana
METAR-TAF:

METAR-TAF

Letiště :

Vamdrup

Kolding, Dánsko

zeměpisná šířka: 55-26N, zeměpisná délka: 009-20E, výška: 44 m

Aktuální stav počasí

Zpráva byla vytvořena před 27 minutami, v 12:50 UTC
Západojihozápadní vítr 6 kt
Teplota 12°C
Vlhkost vzduchu 71%
Tlak 1026 hPa
Viditelnost 10 km a více
Oblačno až skoro zataženo ve výšce 3000 ft

METAR: EKVD 191250Z 25006KT 9999 BKN030 12/07 Q1026

Čas: 15:17 (13:17 UTC)

Předpověď počasí

Zpráva byla vytvořena před 1 hodinou a 23 minutami, v 11:54 UTC
Předpověď platná od 19 v 12 UTC do 19 v 16 UTC
Západní vítr 7 kt
Viditelnost 10 km a více
Oblačno až skoro zataženo ve výšce 3500 ft

TAF: EKVD 191154Z 1912/1916 28007KT 9999 BKN035

Stav a předpovědi počasí z více než 4 000 letišť (zprávy METAR a TAF).

Červené a žluté tečky na mapě představují dostupné meteorologické stanice.

Když kurzor umístíte na tečku, zobrazí se název stanice.

Pak kliknutím zobrazíte stav a předpověď počasí.

Chcete-li změnit mapu, kliknutím na zelené tlačítko se znaménkem +mapu přiblížíte, kliknutím na zelené tlačítko se znaménkem – mapu oddálíte a kliknutím na zelené šipky přejdete na sousední mapy.


METAR-TAF: